Time;durP1;ratioP1;P1;durP2;ratioP2;P2;SDS_P1;SDS_P2;PMS_P1;PMS_P2;Temp;Humidity;BMP_temperature;BMP_pressure;BME280_temperature;BME280_humidity;BME280_pressure;Samples;Min_cycle;Max_cycle;Signal;HPM_P1;HPM_P2
2023/12/20 00:00:21;;;;;;;5.00;4.13;;;7.20;99.90;;;;;;5066187;28;20292;-77
2023/12/20 00:02:48;;;;;;;5.33;4.07;;;7.20;99.90;;;;;;5073839;28;20210;-77
2023/12/20 00:05:15;;;;;;;5.00;3.93;;;7.20;99.90;;;;;;5060968;28;20237;-77
2023/12/20 00:07:41;;;;;;;5.67;4.00;;;7.30;99.90;;;;;;5071140;28;20204;-78
2023/12/20 00:10:09;;;;;;;6.63;4.20;;;7.20;99.90;;;;;;5066391;28;20263;-78
2023/12/20 00:12:37;;;;;;;5.53;4.00;;;7.30;99.90;;;;;;5074235;28;20609;-77
2023/12/20 00:15:05;;;;;;;6.23;4.23;;;7.20;99.90;;;;;;5066102;28;20206;-78
2023/12/20 00:17:32;;;;;;;7.53;4.50;;;7.20;99.90;;;;;;5064684;28;20218;-77
2023/12/20 00:19:58;;;;;;;6.57;4.63;;;7.20;99.90;;;;;;5068786;28;20203;-78
2023/12/20 00:22:25;;;;;;;7.73;4.60;;;7.20;99.90;;;;;;5070779;28;20313;-78
2023/12/20 00:24:52;;;;;;;6.23;4.33;;;7.20;99.90;;;;;;5076296;28;20202;-78
2023/12/20 00:27:19;;;;;;;7.23;4.63;;;7.20;99.90;;;;;;5070973;28;20251;-77
2023/12/20 00:29:49;;;;;;;9.57;5.50;;;7.20;99.90;;;;;;5069254;28;20249;-78
2023/12/20 00:32:16;;;;;;;8.47;5.00;;;7.10;99.90;;;;;;5070262;28;20224;-77
2023/12/20 00:34:44;;;;;;;10.27;6.00;;;7.20;99.90;;;;;;5072568;28;20234;-77
2023/12/20 00:37:11;;;;;;;10.70;6.03;;;7.10;99.90;;;;;;5070832;28;20756;-77
2023/12/20 00:39:37;;;;;;;11.63;6.40;;;7.10;99.90;;;;;;5070527;28;20297;-77
2023/12/20 00:42:05;;;;;;;12.73;7.20;;;7.10;99.90;;;;;;5073261;28;20222;-78
2023/12/20 00:44:32;;;;;;;13.30;6.07;;;7.10;99.90;;;;;;5074673;28;20640;-78
2023/12/20 00:47:01;;;;;;;11.70;6.17;;;7.00;99.90;;;;;;5072647;28;20191;-78
2023/12/20 00:49:27;;;;;;;11.60;5.57;;;7.00;99.90;;;;;;5071299;28;20236;-78
2023/12/20 00:51:54;;;;;;;13.40;5.97;;;7.00;99.90;;;;;;5072685;28;20288;-77
2023/12/20 00:54:21;;;;;;;6.30;3.73;;;7.00;99.90;;;;;;5073398;28;20260;-77
2023/12/20 00:56:47;;;;;;;9.47;4.33;;;7.00;99.90;;;;;;5072249;28;20322;-77
2023/12/20 00:59:14;;;;;;;11.50;4.07;;;6.90;99.90;;;;;;5083572;28;20277;-77
2023/12/20 01:01:42;;;;;;;8.40;4.13;;;7.00;99.90;;;;;;5073174;28;20672;-77
2023/12/20 01:04:10;;;;;;;7.93;3.87;;;6.80;99.90;;;;;;5072658;28;20230;-77
2023/12/20 01:06:37;;;;;;;7.50;3.90;;;6.80;99.90;;;;;;5072156;28;20252;-78
2023/12/20 01:09:04;;;;;;;9.00;3.87;;;6.80;99.90;;;;;;5070931;28;20218;-77
2023/12/20 01:11:31;;;;;;;8.53;4.10;;;6.70;99.90;;;;;;5072930;28;20878;-77
2023/12/20 01:13:57;;;;;;;7.73;3.87;;;6.70;99.90;;;;;;5071623;28;20740;-77
2023/12/20 01:16:24;;;;;;;8.70;3.90;;;6.60;99.90;;;;;;5065376;28;20210;-77
2023/12/20 01:18:51;;;;;;;10.40;4.20;;;6.70;99.90;;;;;;5069789;28;20640;-78
2023/12/20 01:21:19;;;;;;;8.77;3.60;;;6.60;99.90;;;;;;5065465;28;20305;-77
2023/12/20 01:23:46;;;;;;;6.60;3.33;;;6.60;99.90;;;;;;5072961;28;20690;-77
2023/12/20 01:26:15;;;;;;;6.83;3.20;;;6.60;99.90;;;;;;5067295;28;20209;-77
2023/12/20 01:28:42;;;;;;;8.17;2.80;;;6.50;99.90;;;;;;5068473;28;20655;-77
2023/12/20 01:31:09;;;;;;;11.03;2.90;;;6.50;99.90;;;;;;5071373;28;20620;-77
2023/12/20 01:33:36;;;;;;;10.03;2.13;;;6.40;99.90;;;;;;5072443;28;20205;-78
2023/12/20 01:36:03;;;;;;;6.17;1.90;;;6.40;99.90;;;;;;5072215;28;20244;-77
2023/12/20 01:38:32;;;;;;;7.03;1.67;;;6.40;99.90;;;;;;5068128;28;20766;-78
2023/12/20 01:40:59;;;;;;;6.03;1.60;;;6.40;99.90;;;;;;5072355;28;20313;-77
2023/12/20 01:43:25;;;;;;;7.23;1.60;;;6.40;99.90;;;;;;5072417;28;20289;-77
2023/12/20 01:45:53;;;;;;;4.27;1.53;;;6.30;99.90;;;;;;5069259;28;20198;-77
2023/12/20 01:48:21;;;;;;;2.87;1.93;;;6.30;99.90;;;;;;5069306;28;20209;-77
2023/12/20 01:50:49;;;;;;;5.80;1.20;;;6.30;99.90;;;;;;5069501;28;20328;-77
2023/12/20 01:53:16;;;;;;;8.23;1.53;;;6.40;99.90;;;;;;5070033;28;20199;-77
2023/12/20 01:55:45;;;;;;;7.70;1.43;;;6.40;99.90;;;;;;5069295;28;20293;-78
2023/12/20 01:58:13;;;;;;;6.27;1.60;;;6.40;99.90;;;;;;5065972;28;20585;-77
2023/12/20 02:00:40;;;;;;;5.07;1.57;;;6.40;99.90;;;;;;5060188;28;20229;-77
2023/12/20 02:03:07;;;;;;;8.47;1.43;;;6.40;99.90;;;;;;5065061;28;20194;-77
2023/12/20 02:05:36;;;;;;;8.73;1.57;;;6.50;99.90;;;;;;5066116;28;20636;-77
2023/12/20 02:08:03;;;;;;;10.70;1.53;;;6.50;99.90;;;;;;5071870;28;20234;-77
2023/12/20 02:10:30;;;;;;;4.63;1.60;;;6.50;99.90;;;;;;5069457;28;20326;-77
2023/12/20 02:12:58;;;;;;;10.93;1.43;;;6.50;99.90;;;;;;5070249;28;20206;-77
2023/12/20 02:15:25;;;;;;;6.27;1.70;;;6.50;99.90;;;;;;5071332;28;20380;-77
2023/12/20 02:17:52;;;;;;;5.63;1.30;;;6.40;99.90;;;;;;5073852;28;20223;-77
2023/12/20 02:20:19;;;;;;;10.63;2.70;;;6.40;99.90;;;;;;5064900;28;20703;-78
2023/12/20 02:22:47;;;;;;;10.27;1.83;;;6.40;99.90;;;;;;5065470;28;20198;-78
2023/12/20 02:25:14;;;;;;;5.27;1.40;;;6.40;99.90;;;;;;5071547;28;20222;-77
2023/12/20 02:27:42;;;;;;;5.03;2.20;;;6.40;99.90;;;;;;5068432;28;20244;-78
2023/12/20 02:30:10;;;;;;;5.37;1.27;;;6.40;99.90;;;;;;5072204;28;20244;-78
2023/12/20 02:32:36;;;;;;;11.30;1.77;;;6.30;1.00;;;;;;5060544;28;20656;-77
2023/12/20 02:35:04;;;;;;;5.77;1.47;;;6.30;1.00;;;;;;5073215;28;20701;-78
2023/12/20 02:37:30;;;;;;;6.23;1.80;;;6.20;99.90;;;;;;5076278;28;20687;-77
2023/12/20 02:39:59;;;;;;;4.00;1.30;;;6.20;1.00;;;;;;5073767;28;20206;-77
2023/12/20 02:42:25;;;;;;;4.93;1.73;;;6.10;1.00;;;;;;5064446;28;20254;-78
2023/12/20 02:44:52;;;;;;;4.97;1.50;;;6.00;1.00;;;;;;5072845;28;20229;-78
2023/12/20 02:47:19;;;;;;;6.23;1.47;;;6.00;1.00;;;;;;5071888;28;20194;-77
2023/12/20 02:49:46;;;;;;;7.40;1.43;;;6.00;1.00;;;;;;5072137;28;20214;-77
2023/12/20 02:52:13;;;;;;;6.47;1.40;;;6.00;99.90;;;;;;5059430;28;20222;-77
2023/12/20 02:54:40;;;;;;;5.43;1.30;;;6.00;1.00;;;;;;5073651;28;20295;-77
2023/12/20 02:57:08;;;;;;;5.27;1.37;;;5.90;1.00;;;;;;5072588;28;21419;-78
2023/12/20 02:59:35;;;;;;;8.23;2.20;;;5.90;1.00;;;;;;5070452;28;20229;-78
2023/12/20 03:02:02;;;;;;;4.40;1.43;;;5.90;1.00;;;;;;5074130;28;20234;-77
2023/12/20 03:04:29;;;;;;;2.90;1.87;;;5.90;1.00;;;;;;5075396;28;20206;-77
2023/12/20 03:06:56;;;;;;;4.60;1.37;;;5.90;99.90;;;;;;5075617;28;20230;-77
2023/12/20 03:09:23;;;;;;;6.73;2.07;;;6.00;1.00;;;;;;5075562;28;20637;-78
2023/12/20 03:11:50;;;;;;;5.30;1.27;;;6.00;99.90;;;;;;5078468;28;20498;-77
2023/12/20 03:14:18;;;;;;;2.93;1.13;;;5.90;99.90;;;;;;5074794;28;20230;-77
2023/12/20 03:16:48;;;;;;;5.40;1.10;;;6.00;1.00;;;;;;5064497;28;20631;-77
2023/12/20 03:19:15;;;;;;;5.73;1.40;;;6.00;1.00;;;;;;5065411;28;20303;-78
2023/12/20 03:21:42;;;;;;;7.07;1.50;;;5.90;1.00;;;;;;5075371;28;20218;-78
2023/12/20 03:24:09;;;;;;;8.27;1.60;;;5.90;1.00;;;;;;5058555;28;20229;-77
2023/12/20 03:26:36;;;;;;;5.53;1.23;;;5.90;1.00;;;;;;5071032;28;20202;-77
2023/12/20 03:29:03;;;;;;;7.53;1.10;;;5.80;1.00;;;;;;5060871;28;20573;-78
2023/12/20 03:31:32;;;;;;;2.27;1.10;;;5.70;1.00;;;;;;5071784;28;20684;-77
2023/12/20 03:33:59;;;;;;;6.10;1.10;;;5.80;1.00;;;;;;5069068;28;20202;-77
2023/12/20 03:36:25;;;;;;;9.30;2.33;;;5.80;1.00;;;;;;5072574;28;20256;-77
2023/12/20 03:38:52;;;;;;;10.70;2.20;;;5.70;1.00;;;;;;5063402;28;20305;-77
2023/12/20 03:41:19;;;;;;;8.10;2.97;;;5.80;1.00;;;;;;5070798;28;20222;-78
2023/12/20 03:43:46;;;;;;;5.73;1.50;;;5.70;1.00;;;;;;5073605;28;20238;-78
2023/12/20 03:46:13;;;;;;;5.97;1.70;;;5.70;1.00;;;;;;5075012;28;20241;-79
2023/12/20 03:48:41;;;;;;;3.23;1.63;;;5.70;1.00;;;;;;5073357;28;20195;-78
2023/12/20 03:51:08;;;;;;;9.97;1.90;;;5.70;1.00;;;;;;5074738;28;20620;-77
2023/12/20 03:53:35;;;;;;;4.67;1.70;;;5.70;99.90;;;;;;5070507;28;20210;-78
2023/12/20 03:56:02;;;;;;;7.63;1.70;;;5.70;99.90;;;;;;5069153;28;20268;-78
2023/12/20 03:58:28;;;;;;;8.93;2.27;;;5.70;1.00;;;;;;5074079;28;20226;-77
2023/12/20 04:00:55;;;;;;;12.57;2.27;;;5.80;99.90;;;;;;5069255;28;20284;-78
2023/12/20 04:03:23;;;;;;;6.40;2.20;;;5.80;99.90;;;;;;5069814;28;20198;-77
2023/12/20 04:05:51;;;;;;;8.00;1.77;;;5.70;99.90;;;;;;5066102;28;20211;-79
2023/12/20 04:08:18;;;;;;;4.87;1.90;;;5.70;1.00;;;;;;5071571;28;20204;-78
2023/12/20 04:10:45;;;;;;;5.17;1.70;;;5.80;1.00;;;;;;5075036;28;20753;-82
2023/12/20 04:13:11;;;;;;;8.30;1.67;;;5.90;99.90;;;;;;5069846;28;20203;-78
2023/12/20 04:15:38;;;;;;;7.70;1.87;;;5.90;99.90;;;;;;5074092;28;20293;-78
2023/12/20 04:18:05;;;;;;;5.57;2.10;;;5.90;99.90;;;;;;5071246;28;20768;-78
2023/12/20 04:20:32;;;;;;;9.50;2.80;;;5.90;99.90;;;;;;5070334;28;20234;-78
2023/12/20 04:23:00;;;;;;;4.87;1.47;;;6.00;99.90;;;;;;5063973;28;20289;-79
2023/12/20 04:25:27;;;;;;;5.90;1.67;;;6.00;1.00;;;;;;5063203;28;20207;-78
2023/12/20 04:27:54;;;;;;;6.87;1.63;;;6.00;1.00;;;;;;5074722;28;20651;-79
2023/12/20 04:30:21;;;;;;;4.17;1.70;;;6.00;1.00;;;;;;5071778;28;20312;-79
2023/12/20 04:32:48;;;;;;;4.67;1.63;;;6.10;1.00;;;;;;5068052;28;20627;-78
2023/12/20 04:35:15;;;;;;;10.40;1.73;;;6.10;1.00;;;;;;5068021;28;20258;-79
2023/12/20 04:37:42;;;;;;;6.37;1.70;;;6.20;1.00;;;;;;5072365;28;20206;-80
2023/12/20 04:40:11;;;;;;;8.77;2.10;;;6.20;1.00;;;;;;5069032;28;20199;-79
2023/12/20 04:42:38;;;;;;;7.00;2.00;;;6.30;99.90;;;;;;5063269;28;20245;-78
2023/12/20 04:45:06;;;;;;;8.23;1.87;;;6.30;99.90;;;;;;5073326;28;20198;-79
2023/12/20 04:47:33;;;;;;;10.23;1.80;;;6.30;99.90;;;;;;5069227;28;20202;-80
2023/12/20 04:50:00;;;;;;;6.00;2.07;;;6.30;99.90;;;;;;5074635;28;20207;-78
2023/12/20 04:52:26;;;;;;;9.90;2.30;;;6.40;1.00;;;;;;5066771;28;20223;-79
2023/12/20 04:54:53;;;;;;;6.23;1.97;;;6.40;1.00;;;;;;5064566;28;20206;-79
2023/12/20 04:57:22;;;;;;;10.17;2.37;;;6.30;1.00;;;;;;5063613;28;20241;-79
2023/12/20 04:59:49;;;;;;;8.97;2.30;;;6.40;1.00;;;;;;5067750;28;20257;-78
2023/12/20 05:02:16;;;;;;;7.63;2.23;;;6.40;1.00;;;;;;5073230;28;20651;-79
2023/12/20 05:04:43;;;;;;;4.00;1.97;;;6.30;1.00;;;;;;5071350;28;20206;-79
2023/12/20 05:07:10;;;;;;;10.20;2.27;;;6.40;99.90;;;;;;5069240;28;20202;-80
2023/12/20 05:09:37;;;;;;;11.03;2.20;;;6.40;1.00;;;;;;5073263;28;20289;-79
2023/12/20 05:12:04;;;;;;;6.53;2.00;;;6.40;1.00;;;;;;5064636;28;20687;-80
2023/12/20 05:14:32;;;;;;;6.43;2.17;;;6.30;1.00;;;;;;5074321;28;20232;-79
2023/12/20 05:16:59;;;;;;;9.37;2.20;;;6.30;99.90;;;;;;5072292;28;20206;-79
2023/12/20 05:19:26;;;;;;;6.70;2.30;;;6.30;1.00;;;;;;5069534;28;20258;-79
2023/12/20 05:21:53;;;;;;;6.97;2.23;;;6.30;1.00;;;;;;5066201;28;20226;-80
2023/12/20 05:24:20;;;;;;;9.03;2.70;;;6.30;99.90;;;;;;5073787;28;20196;-79
2023/12/20 05:26:47;;;;;;;7.77;2.67;;;6.30;99.90;;;;;;5070531;28;20285;-78
2023/12/20 05:29:14;;;;;;;7.73;3.33;;;6.30;1.00;;;;;;5061866;28;20230;-80
2023/12/20 05:31:42;;;;;;;10.93;2.50;;;6.40;99.90;;;;;;5069613;28;20289;-78
2023/12/20 05:34:09;;;;;;;8.80;2.57;;;6.40;99.90;;;;;;5068877;28;20226;-80
2023/12/20 05:36:36;;;;;;;6.07;2.77;;;6.40;99.90;;;;;;5067861;28;20203;-79
2023/12/20 05:39:04;;;;;;;9.97;3.10;;;6.50;99.90;;;;;;5065110;28;20249;-79
2023/12/20 05:41:31;;;;;;;10.13;2.40;;;6.50;99.90;;;;;;5063810;28;20605;-79
2023/12/20 05:43:59;;;;;;;18.80;3.00;;;6.50;99.90;;;;;;5072507;28;20237;-79
2023/12/20 05:46:26;;;;;;;13.83;2.73;;;6.50;99.90;;;;;;5066710;28;20209;-78
2023/12/20 05:48:54;;;;;;;10.30;2.93;;;6.50;99.90;;;;;;5072580;28;20625;-78
2023/12/20 05:51:21;;;;;;;9.03;2.90;;;6.60;99.90;;;;;;5074091;28;20279;-78
2023/12/20 05:53:49;;;;;;;9.30;2.40;;;6.60;91.20;;;;;;5070121;28;20276;-80
2023/12/20 05:56:16;;;;;;;11.40;2.67;;;6.60;71.30;;;;;;5063448;28;20198;-78
2023/12/20 05:58:43;;;;;;;9.87;3.63;;;6.60;99.90;;;;;;5064287;28;20222;-78
2023/12/20 06:01:10;;;;;;;8.17;3.30;;;6.50;1.00;;;;;;5069751;28;20226;-78
2023/12/20 06:03:37;;;;;;;9.27;2.60;;;6.50;1.00;;;;;;5064395;28;20194;-78
2023/12/20 06:06:08;;;;;;;11.17;2.83;;;6.50;1.00;;;;;;5065220;28;20237;-78
2023/12/20 06:08:35;;;;;;;9.43;2.80;;;6.50;1.00;;;;;;5069953;28;20244;-78
2023/12/20 06:11:02;;;;;;;6.70;2.73;;;6.50;13.30;;;;;;5068484;28;20221;-79
2023/12/20 06:13:28;;;;;;;10.53;2.90;;;6.50;1.00;;;;;;5069751;28;20203;-80
2023/12/20 06:15:56;;;;;;;8.67;2.50;;;6.50;1.00;;;;;;5068648;28;20230;-79
2023/12/20 06:18:24;;;;;;;8.00;2.90;;;6.30;1.00;;;;;;5069728;28;20686;-79
2023/12/20 06:20:51;;;;;;;9.67;3.33;;;6.30;1.00;;;;;;5072857;28;20267;-79
2023/12/20 06:23:22;;;;;;;9.30;2.63;;;6.20;1.00;;;;;;5070516;28;20695;-78
2023/12/20 06:25:49;;;;;;;10.27;2.80;;;6.10;1.00;;;;;;5074054;28;20241;-78
2023/12/20 06:28:16;;;;;;;8.63;2.70;;;6.00;99.90;;;;;;5071655;28;20251;-78
2023/12/20 06:30:43;;;;;;;14.43;3.40;;;6.10;1.00;;;;;;5069208;28;20230;-78
2023/12/20 06:33:11;;;;;;;12.27;3.33;;;6.20;99.90;;;;;;5071117;28;20220;-80
2023/12/20 06:35:38;;;;;;;9.37;3.10;;;6.20;99.90;;;;;;5065317;28;20203;-78
2023/12/20 06:38:05;;;;;;;13.20;4.60;;;6.20;1.00;;;;;;5059939;28;20202;-78
2023/12/20 06:40:33;;;;;;;14.87;4.17;;;6.30;99.90;;;;;;5063421;28;20256;-78
2023/12/20 06:43:00;;;;;;;11.27;2.90;;;6.30;1.00;;;;;;5071212;28;20288;-80
2023/12/20 06:45:27;;;;;;;10.43;2.97;;;6.30;1.00;;;;;;5070206;28;20202;-78
2023/12/20 06:47:54;;;;;;;11.73;3.53;;;6.30;1.00;;;;;;5066848;28;20237;-78
2023/12/20 06:50:21;;;;;;;5.33;2.43;;;6.20;1.00;;;;;;5067327;28;20223;-79
2023/12/20 06:52:48;;;;;;;13.90;3.10;;;6.20;1.00;;;;;;5064356;28;20677;-80
2023/12/20 06:55:15;;;;;;;11.13;2.70;;;6.10;99.90;;;;;;5060236;28;20199;-78
2023/12/20 06:57:43;;;;;;;10.73;3.57;;;6.10;99.90;;;;;;5065811;28;20237;-79
2023/12/20 07:00:12;;;;;;;9.10;2.90;;;6.10;1.00;;;;;;5065778;28;20265;-80
2023/12/20 07:02:39;;;;;;;17.20;3.63;;;6.10;99.90;;;;;;5069864;28;20199;-79
2023/12/20 07:05:09;;;;;;;9.07;3.33;;;6.20;99.90;;;;;;5064442;28;20248;-78
2023/12/20 07:07:36;;;;;;;13.03;4.00;;;6.30;99.90;;;;;;5065956;28;20203;-78
2023/12/20 07:10:03;;;;;;;12.83;3.73;;;6.10;1.00;;;;;;5068935;28;20218;-79
2023/12/20 07:12:30;;;;;;;9.37;2.93;;;6.00;1.00;;;;;;5066641;28;20300;-79
2023/12/20 07:14:57;;;;;;;16.07;4.10;;;6.10;1.00;;;;;;5066149;28;20293;-80
2023/12/20 07:17:24;;;;;;;7.27;3.37;;;6.20;1.00;;;;;;5071336;28;20581;-80
2023/12/20 07:19:51;;;;;;;11.83;3.03;;;6.10;1.00;;;;;;5072212;28;20249;-79
2023/12/20 07:22:18;;;;;;;11.63;3.10;;;6.20;1.00;;;;;;5070122;28;20222;-78
2023/12/20 07:24:45;;;;;;;12.17;3.30;;;6.30;1.00;;;;;;5073810;28;20225;-78
2023/12/20 07:27:12;;;;;;;10.10;3.00;;;6.30;1.00;;;;;;5072905;28;20198;-80
2023/12/20 07:29:39;;;;;;;15.17;3.80;;;6.30;1.00;;;;;;5072767;28;20641;-79
2023/12/20 07:32:08;;;;;;;7.63;3.00;;;6.30;99.90;;;;;;5070671;28;20214;-80
2023/12/20 07:34:35;;;;;;;13.47;3.80;;;6.30;1.00;;;;;;5068101;28;20635;-78
2023/12/20 07:37:02;;;;;;;10.97;3.13;;;6.20;99.90;;;;;;5071369;28;20199;-78
2023/12/20 07:39:29;;;;;;;11.47;3.00;;;6.20;99.90;;;;;;5068024;28;20222;-79
2023/12/20 07:41:55;;;;;;;11.67;3.20;;;6.10;1.00;;;;;;5067819;28;20238;-79
2023/12/20 07:44:22;;;;;;;15.27;4.57;;;6.20;99.90;;;;;;5068084;28;20245;-78
2023/12/20 07:46:49;;;;;;;12.20;3.13;;;6.30;99.90;;;;;;5070499;28;20213;-80
2023/12/20 07:49:18;;;;;;;8.90;3.00;;;6.30;99.90;;;;;;5075561;28;20195;-79
2023/12/20 07:51:45;;;;;;;9.30;3.00;;;6.40;99.90;;;;;;5064416;28;20751;-78
2023/12/20 07:54:12;;;;;;;8.00;2.60;;;6.50;99.90;;;;;;5071749;28;20616;-79
2023/12/20 07:56:39;;;;;;;10.47;3.63;;;6.40;99.90;;;;;;5062249;28;20202;-79
2023/12/20 07:59:06;;;;;;;10.13;3.20;;;6.50;99.90;;;;;;5067632;28;20305;-79
2023/12/20 08:01:33;;;;;;;10.50;3.20;;;6.50;99.90;;;;;;5072871;28;20222;-79
2023/12/20 08:04:00;;;;;;;9.57;2.77;;;6.50;1.00;;;;;;5068683;28;20203;-79
2023/12/20 08:06:28;;;;;;;15.60;3.70;;;6.50;39.40;;;;;;5066070;28;20206;-78
2023/12/20 08:08:55;;;;;;;8.47;3.20;;;6.50;68.60;;;;;;5070995;28;20649;-79
2023/12/20 08:11:22;;;;;;;13.77;3.67;;;6.60;23.50;;;;;;5067944;28;20227;-78
2023/12/20 08:13:49;;;;;;;13.50;3.77;;;6.60;71.40;;;;;;5068712;28;20258;-78
2023/12/20 08:16:17;;;;;;;14.33;4.43;;;6.60;99.90;;;;;;5066673;28;20202;-79
2023/12/20 08:18:46;;;;;;;13.10;3.33;;;6.50;99.90;;;;;;5065124;28;20198;-78
2023/12/20 08:21:13;;;;;;;11.63;4.40;;;6.60;1.00;;;;;;5066271;28;20217;-79
2023/12/20 08:23:41;;;;;;;9.33;4.17;;;6.60;1.00;;;;;;5070531;28;20217;-78
2023/12/20 08:26:08;;;;;;;9.17;3.70;;;6.60;99.90;;;;;;5071848;28;20198;-79
2023/12/20 08:28:36;;;;;;;12.63;4.77;;;6.60;99.90;;;;;;5070194;28;20242;-79
2023/12/20 08:31:03;;;;;;;11.63;4.30;;;6.60;99.90;;;;;;5075246;28;20218;-81
2023/12/20 08:33:30;;;;;;;14.37;4.77;;;6.70;1.00;;;;;;5072920;28;20222;-79
2023/12/20 08:35:57;;;;;;;10.50;4.13;;;6.60;1.00;;;;;;5066753;28;20717;-79
2023/12/20 08:38:24;;;;;;;18.43;4.33;;;6.70;1.00;;;;;;5072512;28;20635;-79
2023/12/20 08:40:52;;;;;;;11.13;3.97;;;6.60;1.00;;;;;;5075709;28;20753;-80
2023/12/20 08:43:19;;;;;;;13.57;5.33;;;6.60;1.00;;;;;;5072922;28;20285;-79
2023/12/20 08:45:45;;;;;;;8.73;4.07;;;6.70;1.00;;;;;;5073701;28;20302;-79
2023/12/20 08:48:12;;;;;;;16.77;4.20;;;6.70;1.00;;;;;;5075181;28;20657;-79
2023/12/20 08:50:39;;;;;;;11.67;3.90;;;6.70;1.00;;;;;;5073394;28;20318;-79
2023/12/20 08:53:06;;;;;;;16.03;4.40;;;6.70;1.00;;;;;;5074880;28;20202;-79
2023/12/20 08:55:33;;;;;;;13.73;4.37;;;6.80;1.00;;;;;;5062458;28;20234;-79
2023/12/20 08:58:02;;;;;;;10.40;4.00;;;6.80;1.00;;;;;;5058795;28;20233;-78
2023/12/20 09:00:29;;;;;;;12.67;4.17;;;6.90;99.90;;;;;;5066139;28;20700;-79
2023/12/20 09:02:56;;;;;;;14.77;4.17;;;6.90;99.90;;;;;;5062172;28;20215;-78
2023/12/20 09:05:23;;;;;;;15.03;5.43;;;6.90;99.90;;;;;;5062274;28;20218;-79
2023/12/20 09:07:50;;;;;;;12.97;4.63;;;6.90;99.90;;;;;;5070000;28;20202;-79
2023/12/20 09:10:21;;;;;;;18.30;4.10;;;6.90;99.90;;;;;;5062387;28;20226;-79
2023/12/20 09:12:48;;;;;;;15.07;3.77;;;6.90;99.90;;;;;;5065761;28;20663;-80
2023/12/20 09:15:17;;;;;;;11.97;3.87;;;6.90;99.90;;;;;;5063275;28;20261;-80
2023/12/20 09:17:43;;;;;;;12.03;4.17;;;6.90;1.00;;;;;;5071395;28;20298;-80
2023/12/20 09:20:11;;;;;;;13.80;4.23;;;6.90;1.00;;;;;;5065683;28;20225;-80
2023/12/20 09:22:39;;;;;;;13.63;4.23;;;6.90;1.00;;;;;;5065499;28;20289;-80
2023/12/20 09:25:06;;;;;;;10.30;4.37;;;6.90;1.00;;;;;;5068201;28;20199;-79
2023/12/20 09:27:33;;;;;;;7.47;3.83;;;7.00;1.00;;;;;;5069573;28;20620;-79
2023/12/20 09:30:00;;;;;;;11.27;3.73;;;7.00;1.00;;;;;;5070131;28;20230;-80
2023/12/20 09:32:29;;;;;;;13.60;4.30;;;7.10;1.00;;;;;;5070658;28;20409;-79
2023/12/20 09:34:56;;;;;;;8.90;3.47;;;7.10;99.90;;;;;;5067711;28;20202;-78
2023/12/20 09:37:23;;;;;;;10.77;3.70;;;7.10;68.90;;;;;;5072699;28;20293;-79
2023/12/20 09:39:50;;;;;;;18.87;4.37;;;7.10;76.00;;;;;;5072827;28;20222;-79
2023/12/20 09:42:22;;;;;;;15.27;3.70;;;7.10;1.00;;;;;;5073750;28;20702;-81
2023/12/20 09:44:49;;;;;;;13.03;3.77;;;7.00;1.00;;;;;;5072796;28;20210;-78
2023/12/20 09:47:20;;;;;;;10.27;3.50;;;7.00;1.00;;;;;;5074665;28;20249;-80
2023/12/20 09:49:48;;;;;;;9.00;3.20;;;7.00;1.00;;;;;;5073844;28;20624;-78
2023/12/20 09:52:16;;;;;;;11.37;3.43;;;7.00;1.00;;;;;;5067463;28;20639;-79
2023/12/20 09:54:45;;;;;;;12.50;3.40;;;7.10;1.00;;;;;;5071628;28;20202;-79
2023/12/20 09:57:11;;;;;;;9.23;3.10;;;7.20;1.00;;;;;;5073077;28;20233;-79
2023/12/20 09:59:39;;;;;;;20.37;4.03;;;7.30;1.00;;;;;;5064407;28;20729;-80
2023/12/20 10:02:13;;;;;;;14.17;3.60;;;7.40;1.00;;;;;;5058132;28;20226;-80
2023/12/20 10:04:47;;;;;;;7.10;3.00;;;7.30;1.00;;;;;;5065057;28;20236;-79
2023/12/20 10:07:16;;;;;;;11.33;3.17;;;7.30;1.00;;;;;;5059974;28;20242;-81
2023/12/20 10:09:43;;;;;;;15.67;4.03;;;7.20;1.00;;;;;;5059561;28;20265;-79
2023/12/20 10:12:10;;;;;;;12.97;3.33;;;7.40;1.00;;;;;;5057278;28;20223;-80
2023/12/20 10:14:39;;;;;;;12.27;4.60;;;7.30;1.00;;;;;;5064992;28;20202;-79
2023/12/20 10:17:07;;;;;;;8.30;3.23;;;7.30;1.00;;;;;;5067274;28;20242;-81
2023/12/20 10:19:34;;;;;;;13.87;3.50;;;7.30;1.00;;;;;;5075411;28;20214;-81
2023/12/20 10:22:01;;;;;;;12.53;3.60;;;7.30;1.00;;;;;;5066190;28;20214;-81
2023/12/20 10:24:31;;;;;;;11.30;3.50;;;7.30;1.00;;;;;;5071852;28;20207;-80
2023/12/20 10:27:05;;;;;;;14.27;3.93;;;7.30;1.00;;;;;;5067691;28;20225;-80
2023/12/20 10:29:35;;;;;;;10.87;4.13;;;7.30;1.00;;;;;;5067586;28;20194;-80
2023/12/20 10:32:23;;;;;;;12.00;4.73;;;7.30;1.00;;;;;;5061825;28;20225;-80
2023/12/20 10:34:50;;;;;;;15.30;5.50;;;7.20;1.00;;;;;;5065309;28;20256;-81
2023/12/20 10:37:17;;;;;;;10.63;4.80;;;7.30;99.90;;;;;;5068301;28;20306;-80
2023/12/20 10:39:51;;;;;;;11.53;5.37;;;7.40;99.90;;;;;;5070887;28;20328;-80
2023/12/20 10:42:21;;;;;;;14.70;5.73;;;7.50;1.00;;;;;;5068522;28;20218;-79
2023/12/20 10:44:48;;;;;;;16.13;5.70;;;7.50;30.70;;;;;;5065663;28;20261;-80
2023/12/20 10:47:15;;;;;;;10.67;5.13;;;7.60;99.90;;;;;;5073368;28;20199;-79
2023/12/20 10:49:43;;;;;;;20.03;6.47;;;7.60;1.00;;;;;;5073199;28;20213;-79
2023/12/20 10:52:12;;;;;;;17.57;5.80;;;7.60;99.90;;;;;;5076144;28;20245;-80
2023/12/20 10:54:39;;;;;;;13.77;5.97;;;7.60;55.60;;;;;;5069901;28;20290;-79
2023/12/20 10:57:08;;;;;;;9.03;5.17;;;7.50;1.00;;;;;;5078425;28;20298;-80
2023/12/20 10:59:38;;;;;;;13.67;5.30;;;7.50;1.00;;;;;;5070077;28;20238;-81
2023/12/20 11:02:06;;;;;;;11.00;5.00;;;7.60;1.00;;;;;;5073630;28;20310;-81
2023/12/20 11:04:40;;;;;;;14.63;6.53;;;7.60;1.00;;;;;;5067229;28;20668;-81
2023/12/20 11:07:18;;;;;;;12.70;4.97;;;7.60;1.00;;;;;;5067198;28;20729;-80
2023/12/20 11:09:55;;;;;;;12.37;5.77;;;7.60;1.00;;;;;;5070232;28;20241;-81
2023/12/20 11:12:29;;;;;;;10.20;4.47;;;7.60;1.00;;;;;;5069116;28;20222;-80
2023/12/20 11:15:00;;;;;;;10.10;5.30;;;7.50;1.00;;;;;;5063080;28;20206;-80
2023/12/20 11:17:28;;;;;;;10.33;5.60;;;7.40;99.90;;;;;;5063596;28;20672;-80
2023/12/20 11:20:11;;;;;;;13.50;5.30;;;7.40;99.90;;;;;;5076578;28;20226;-82
2023/12/20 11:22:41;;;;;;;9.80;4.93;;;7.30;1.00;;;;;;5064710;28;20213;-82
2023/12/20 11:25:10;;;;;;;13.80;4.97;;;7.20;1.00;;;;;;5073117;28;20202;-79
2023/12/20 11:27:42;;;;;;;15.60;5.27;;;7.20;99.90;;;;;;5071367;28;20579;-82
2023/12/20 11:30:10;;;;;;;13.03;6.03;;;7.20;1.00;;;;;;5074232;28;20201;-81
2023/12/20 11:32:37;;;;;;;14.70;5.50;;;7.20;1.00;;;;;;5074162;28;20278;-80
2023/12/20 11:35:19;;;;;;;9.90;4.37;;;7.10;1.00;;;;;;5073849;28;20263;-80
2023/12/20 11:37:48;;;;;;;11.63;4.97;;;7.10;99.90;;;;;;5074101;28;20206;-80
2023/12/20 11:40:16;;;;;;;14.33;6.13;;;7.10;1.00;;;;;;5073782;28;20249;-81
2023/12/20 11:42:46;;;;;;;11.90;5.63;;;7.10;91.20;;;;;;5071150;28;20226;-81
2023/12/20 11:45:16;;;;;;;11.37;4.77;;;7.00;99.90;;;;;;5079044;28;20241;-81
2023/12/20 11:47:45;;;;;;;10.43;4.90;;;7.00;1.00;;;;;;5075178;28;20576;-81
2023/12/20 11:50:12;;;;;;;17.10;6.37;;;7.00;1.00;;;;;;5075770;28;20202;-81
2023/12/20 11:52:39;;;;;;;9.63;4.10;;;6.90;1.00;;;;;;5075497;28;20202;-80
2023/12/20 11:55:06;;;;;;;11.90;4.07;;;7.00;1.00;;;;;;5076020;28;20244;-80
2023/12/20 11:57:34;;;;;;;9.07;3.47;;;7.10;1.00;;;;;;5078051;28;20238;-80
2023/12/20 12:00:03;;;;;;;8.00;3.27;;;7.20;1.00;;;;;;5070291;28;20210;-80
2023/12/20 12:02:30;;;;;;;11.00;3.30;;;7.10;1.00;;;;;;5070808;28;20593;-80
2023/12/20 12:04:58;;;;;;;14.87;3.20;;;7.10;2.00;;;;;;5058870;28;20207;-80
2023/12/20 12:07:25;;;;;;;11.10;3.63;;;7.10;1.00;;;;;;5060608;28;20203;-81
2023/12/20 12:09:52;;;;;;;9.20;2.07;;;7.10;1.00;;;;;;5059400;28;20302;-80
2023/12/20 12:12:20;;;;;;;2.53;1.00;;;6.10;99.90;;;;;;5061803;28;20651;-80
2023/12/20 12:14:47;;;;;;;3.70;1.23;;;5.90;1.00;;;;;;5063130;28;20253;-81
2023/12/20 12:17:16;;;;;;;2.63;0.90;;;5.60;1.00;;;;;;5063045;28;20696;-80
2023/12/20 12:19:44;;;;;;;4.90;1.17;;;5.70;1.60;;;;;;5072596;28;20575;-82
2023/12/20 12:22:13;;;;;;;4.10;0.90;;;5.70;1.00;;;;;;5064092;28;20352;-80
2023/12/20 12:24:40;;;;;;;4.17;0.80;;;5.60;99.90;;;;;;5066025;28;20210;-80
2023/12/20 12:27:08;;;;;;;1.73;0.77;;;5.50;99.90;;;;;;5068627;28;20264;-79
2023/12/20 12:29:35;;;;;;;4.87;0.80;;;5.50;1.00;;;;;;5071763;28;20202;-80
2023/12/20 12:32:02;;;;;;;3.43;0.70;;;5.50;1.00;;;;;;5070547;28;20288;-79
2023/12/20 12:34:30;;;;;;;2.00;0.70;;;5.40;98.30;;;;;;5070749;28;20235;-80
2023/12/20 12:36:58;;;;;;;3.90;0.60;;;5.40;99.90;;;;;;5070546;28;20238;-80
2023/12/20 12:39:25;;;;;;;3.17;0.50;;;5.30;99.90;;;;;;5070185;28;20516;-80
2023/12/20 12:41:52;;;;;;;5.13;0.60;;;5.30;99.90;;;;;;5071627;28;20226;-79
2023/12/20 12:44:20;;;;;;;2.67;0.60;;;5.40;99.90;;;;;;5074808;28;20657;-80
2023/12/20 12:46:49;;;;;;;1.47;0.60;;;5.50;99.90;;;;;;5073332;28;20210;-80
2023/12/20 12:49:16;;;;;;;4.30;0.70;;;5.50;99.90;;;;;;5074216;28;20195;-80
2023/12/20 12:51:45;;;;;;;2.07;0.80;;;5.70;1.00;;;;;;5069887;28;20236;-80
2023/12/20 12:54:13;;;;;;;0.40;0.40;;;5.80;1.00;;;;;;5077896;28;20194;-80
2023/12/20 12:56:40;;;;;;;4.27;0.80;;;5.80;99.90;;;;;;5079551;28;20203;-81
2023/12/20 12:59:07;;;;;;;4.90;0.90;;;5.70;99.90;;;;;;5076444;28;20198;-79